Time,TemperatureF,DewpointF,PressureIn,WindDirection,WindDirectionDegrees,WindSpeedMPH,WindSpeedGustMPH,Humidity,HourlyPrecipIn,Conditions,Clouds,dailyrainin,SoftwareType,DateUTC
2013-01-14 12:03:00,16.0,3.0,-100.00,South,185,3.0,6.0,58,-99.99,,,-99.99,,2013-01-14 20:03:00,
2013-01-14 12:12:00,16.0,3.0,-100.00,South,185,3.0,6.0,58,-99.99,,,-99.99,,2013-01-14 20:12:00,
2013-01-14 12:22:00,20.0,5.0,-100.00,SE,127,2.0,4.0,51,-99.99,,,-99.99,,2013-01-14 20:22:00,
2013-01-14 12:33:00,20.0,5.0,-100.00,SE,127,2.0,4.0,51,-99.99,,,-99.99,,2013-01-14 20:33:00,
2013-01-14 12:42:00,19.0,6.0,-100.00,East,79,1.0,4.0,55,-99.99,,,-99.99,,2013-01-14 20:42:00,
2013-01-14 12:53:00,19.0,6.0,-100.00,East,79,1.0,4.0,55,-99.99,,,-99.99,,2013-01-14 20:53:00,
2013-01-14 13:02:00,21.0,7.0,-100.00,ESE,114,2.0,4.0,52,-99.99,,,-99.99,,2013-01-14 21:02:00,
2013-01-14 13:12:00,21.0,7.0,-100.00,ESE,114,2.0,4.0,52,-99.99,,,-99.99,,2013-01-14 21:12:00,
2013-01-14 13:22:00,21.0,6.0,-100.00,South,179,2.0,5.0,51,-99.99,,,-99.99,,2013-01-14 21:22:00,
2013-01-14 13:33:00,21.0,6.0,-100.00,South,179,2.0,5.0,51,-99.99,,,-99.99,,2013-01-14 21:33:00,
2013-01-14 13:42:00,24.0,6.0,-100.00,SSE,151,1.0,4.0,45,-99.99,,,-99.99,,2013-01-14 21:42:00,
2013-01-14 13:53:00,24.0,6.0,-100.00,SSE,151,1.0,4.0,45,-99.99,,,-99.99,,2013-01-14 21:53:00,
2013-01-14 14:02:00,23.0,6.0,-100.00,South,175,3.0,5.0,47,-99.99,,,-99.99,,2013-01-14 22:02:00,
2013-01-14 14:12:00,23.0,6.0,-100.00,South,175,3.0,5.0,47,-99.99,,,-99.99,,2013-01-14 22:12:00,
2013-01-14 14:23:00,25.0,6.0,-100.00,ESE,120,1.0,4.0,43,-99.99,,,-99.99,,2013-01-14 22:23:00,
2013-01-14 14:32:00,25.0,6.0,-100.00,ESE,120,1.0,4.0,43,-99.99,,,-99.99,,2013-01-14 22:32:00,
2013-01-14 14:42:00,25.0,6.0,-100.00,ESE,120,1.0,4.0,43,-99.99,,,-99.99,,2013-01-14 22:42:00,
2013-01-14 15:02:00,25.0,7.0,-100.00,East,97,2.0,5.0,45,-99.99,,,-99.99,,2013-01-14 23:02:00,
2013-01-14 15:12:00,25.0,7.0,-100.00,East,97,2.0,5.0,45,-99.99,,,-99.99,,2013-01-14 23:12:00,
2013-01-14 15:22:00,24.0,4.0,-100.00,East,80,3.0,6.0,41,-99.99,,,-99.99,,2013-01-14 23:22:00,
2013-01-14 15:33:00,24.0,4.0,-100.00,East,80,3.0,6.0,41,-99.99,,,-99.99,,2013-01-14 23:33:00,
2013-01-14 15:42:00,23.0,6.0,-100.00,SE,136,3.0,6.0,47,-99.99,,,-99.99,,2013-01-14 23:42:00,
2013-01-14 15:53:00,23.0,6.0,-100.00,SE,136,3.0,6.0,47,-99.99,,,-99.99,,2013-01-14 23:53:00,
2013-01-14 16:02:00,25.0,6.0,-100.00,ENE,66,1.0,4.0,44,-99.99,,,-99.99,,2013-01-15 00:02:00,
2013-01-14 16:12:00,25.0,6.0,-100.00,ENE,66,1.0,4.0,44,-99.99,,,-99.99,,2013-01-15 00:12:00,
2013-01-14 16:22:00,23.0,6.0,-100.00,SE,128,1.0,4.0,47,-99.99,,,-99.99,,2013-01-15 00:22:00,
2013-01-14 16:32:00,23.0,6.0,-100.00,SE,128,1.0,4.0,47,-99.99,,,-99.99,,2013-01-15 00:32:00,
2013-01-14 16:43:00,21.0,5.0,-100.00,South,191,1.0,3.0,50,-99.99,,,-99.99,,2013-01-15 00:43:00,
2013-01-14 16:53:00,21.0,5.0,-100.00,South,191,1.0,3.0,50,-99.99,,,-99.99,,2013-01-15 00:53:00,
2013-01-14 17:22:00,18.0,5.0,-100.00,SSW,212,1.0,4.0,57,-99.99,,,-99.99,,2013-01-15 01:22:00,
2013-01-14 17:32:00,18.0,5.0,-100.00,SSW,212,1.0,4.0,57,-99.99,,,-99.99,,2013-01-15 01:32:00,
2013-01-14 17:42:00,18.0,6.0,-100.00,SW,232,2.0,3.0,59,-99.99,,,-99.99,,2013-01-15 01:42:00,
2013-01-14 17:52:00,18.0,6.0,-100.00,SW,232,2.0,3.0,59,-99.99,,,-99.99,,2013-01-15 01:52:00,
2013-01-14 18:02:00,17.0,6.0,-100.00,SW,229,0.0,2.0,61,-99.99,,,-99.99,,2013-01-15 02:02:00,
2013-01-14 18:22:00,16.0,7.0,-100.00,WSW,240,0.0,2.0,65,-99.99,,,-99.99,,2013-01-15 02:22:00,
2013-01-14 19:02:00,17.0,6.0,-100.00,SW,224,1.0,2.0,63,-99.99,,,-99.99,,2013-01-15 03:02:00,
2013-01-14 19:12:00,17.0,6.0,-100.00,SW,224,1.0,2.0,63,-99.99,,,-99.99,,2013-01-15 03:12:00,
2013-01-14 19:22:00,17.0,6.0,-100.00,WSW,257,1.0,3.0,59,-99.99,,,-99.99,,2013-01-15 03:22:00,
2013-01-14 19:33:00,17.0,6.0,-100.00,WSW,257,1.0,3.0,59,-99.99,,,-99.99,,2013-01-15 03:33:00,
2013-01-14 19:42:00,17.0,5.0,-100.00,ENE,62,0.0,2.0,57,-99.99,,,-99.99,,2013-01-15 03:42:00,
2013-01-14 19:52:00,17.0,5.0,-100.00,ENE,62,0.0,2.0,57,-99.99,,,-99.99,,2013-01-15 03:52:00,
2013-01-14 20:02:00,19.0,0.0,-100.00,WSW,241,1.0,3.0,43,-99.99,,,-99.99,,2013-01-15 04:02:00,
2013-01-14 20:22:00,18.0,1.0,-100.00,North,6,2.0,4.0,47,-99.99,,,-99.99,,2013-01-15 04:22:00,
2013-01-14 20:32:00,18.0,1.0,-100.00,North,6,2.0,4.0,47,-99.99,,,-99.99,,2013-01-15 04:32:00,
2013-01-14 21:22:00,18.0,1.0,-100.00,SW,236,0.0,1.0,48,-99.99,,,-99.99,,2013-01-15 05:22:00,
2013-01-14 21:33:00,18.0,1.0,-100.00,SW,236,0.0,1.0,48,-99.99,,,-99.99,,2013-01-15 05:33:00,
2013-01-14 21:42:00,19.0,2.0,-100.00,North,4,2.0,5.0,45,-99.99,,,-99.99,,2013-01-15 05:42:00,
2013-01-14 21:52:00,19.0,2.0,-100.00,North,4,2.0,5.0,45,-99.99,,,-99.99,,2013-01-15 05:52:00,
2013-01-14 22:02:00,19.0,2.0,-100.00,SW,220,0.0,2.0,45,-99.99,,,-99.99,,2013-01-15 06:02:00,
2013-01-14 22:12:00,19.0,2.0,-100.00,SW,220,0.0,2.0,45,-99.99,,,-99.99,,2013-01-15 06:12:00,
2013-01-14 22:22:00,19.0,2.0,-100.00,SW,220,0.0,2.0,45,-99.99,,,-99.99,,2013-01-15 06:22:00,
2013-01-14 23:02:00,19.0,2.0,-100.00,NW,309,1.0,3.0,45,-99.99,,,-99.99,,2013-01-15 07:02:00,
2013-01-14 23:22:00,20.0,3.0,-100.00,North,11,3.0,5.0,48,-99.99,,,-99.99,,2013-01-15 07:22:00,
2013-01-14 23:32:00,20.0,3.0,-100.00,North,11,3.0,5.0,48,-99.99,,,-99.99,,2013-01-15 07:32:00,
2013-01-14 23:42:00,22.0,0.0,-100.00,North,356,2.0,3.0,38,-99.99,,,-99.99,,2013-01-15 07:42:00,
2013-01-14 23:52:00,22.0,0.0,-100.00,North,356,2.0,3.0,38,-99.99,,,-99.99,,2013-01-15 07:52:00,